Time;durP1;ratioP1;P1;durP2;ratioP2;P2;SDS_P1;SDS_P2;PMS_P1;PMS_P2;Temp;Humidity;BMP_temperature;BMP_pressure;BME280_temperature;BME280_humidity;BME280_pressure;Samples;Min_cycle;Max_cycle;Signal;HPM_P1;HPM_P2
2022/04/07 00:01:21;;;;;;;6.45;2.80;;;;;;;;;;5053473;28;20045;-38
2022/04/07 00:03:47;;;;;;;5.55;2.70;;;;;;;;;;5052894;28;20075;-38
2022/04/07 00:06:13;;;;;;;5.57;2.70;;;;;;;;;;5053820;28;20057;-39
2022/04/07 00:08:41;;;;;;;6.53;2.70;;;;;;;;;;5053552;28;20076;-38
2022/04/07 00:11:08;;;;;;;7.75;2.80;;;;;;;;;;5053366;28;20080;-38
2022/04/07 00:13:34;;;;;;;5.13;2.60;;;;;;;;;;5053278;28;20049;-38
2022/04/07 00:16:01;;;;;;;6.03;2.70;;;;;;;;;;5052967;28;20075;-38
2022/04/07 00:18:27;;;;;;;7.50;2.50;;;;;;;;;;5053302;28;20060;-38
2022/04/07 00:20:54;;;;;;;5.63;2.75;;;;;;;;;;5053362;28;20059;-38
2022/04/07 00:23:20;;;;;;;6.78;2.60;;;;;;;;;;5053491;28;20061;-38
2022/04/07 00:25:48;;;;;;;7.10;2.70;;;;;;;;;;5053220;28;20060;-40
2022/04/07 00:28:14;;;;;;;;;;;;;;;;;;5053773;28;20049;-38
2022/04/07 00:30:41;;;;;;;8.73;2.78;;;;;;;;;;5053056;28;19978;-41
2022/04/07 00:33:07;;;;;;;7.28;3.05;;;;;;;;;;5053183;28;20548;-38
2022/04/07 00:35:34;;;;;;;6.95;2.60;;;;;;;;;;5052790;28;20988;-38
2022/04/07 00:38:00;;;;;;;6.93;2.90;;;;;;;;;;5053113;28;20044;-38
2022/04/07 00:40:27;;;;;;;6.90;2.70;;;;;;;;;;5052854;28;20481;-38
2022/04/07 00:42:54;;;;;;;6.45;2.42;;;;;;;;;;5053395;28;20048;-40
2022/04/07 00:45:22;;;;;;;7.00;2.50;;;;;;;;;;5052866;28;20049;-38
2022/04/07 00:47:49;;;;;;;5.75;2.40;;;;;;;;;;5053224;28;20072;-38
2022/04/07 00:50:18;;;;;;;7.20;2.70;;;;;;;;;;5052985;28;20083;-38
2022/04/07 00:52:45;;;;;;;6.43;2.42;;;;;;;;;;5052930;28;20049;-38
2022/04/07 00:55:12;;;;;;;5.20;2.50;;;;;;;;;;5052892;28;20048;-38
2022/04/07 00:57:39;;;;;;;6.25;2.67;;;;;;;;;;5053252;28;20065;-38
2022/04/07 01:00:08;;;;;;;6.20;2.28;;;;;;;;;;5052973;28;20045;-39
2022/04/07 01:02:35;;;;;;;4.68;2.45;;;;;;;;;;5052274;28;20123;-38
2022/04/07 01:05:01;;;;;;;7.82;2.80;;;;;;;;;;5053193;28;20064;-38
2022/04/07 01:07:28;;;;;;;5.63;2.65;;;;;;;;;;5052331;28;20393;-38
2022/04/07 01:09:54;;;;;;;5.28;2.50;;;;;;;;;;5052854;28;20037;-38
2022/04/07 01:12:20;;;;;;;7.78;2.70;;;;;;;;;;5053129;28;20064;-38
2022/04/07 01:14:53;;;;;;;6.95;2.63;;;;;;;;;;5052770;28;20068;-39
2022/04/07 01:17:21;;;;;;;5.70;2.38;;;;;;;;;;5052683;28;20194;-40
2022/04/07 01:19:47;;;;;;;7.25;2.60;;;;;;;;;;5053689;28;20052;-49
2022/04/07 01:22:14;;;;;;;7.30;2.70;;;;;;;;;;5055534;28;20049;-46
2022/04/07 01:24:41;;;;;;;5.22;2.45;;;;;;;;;;5055251;28;20064;-43
2022/04/07 01:27:08;;;;;;;4.95;2.40;;;;;;;;;;5057215;28;20055;-41
2022/04/07 01:29:35;;;;;;;4.93;2.40;;;;;;;;;;5060075;28;20044;-38
2022/04/07 01:32:06;;;;;;;4.65;2.40;;;;;;;;;;5056164;28;20907;-38
2022/04/07 01:34:32;;;;;;;5.85;2.53;;;;;;;;;;5059826;28;20057;-49
2022/04/07 01:36:59;;;;;;;6.07;2.70;;;;;;;;;;5059392;28;20057;-45
2022/04/07 01:39:27;;;;;;;5.88;2.63;;;;;;;;;;5059287;28;20045;-42
2022/04/07 01:41:53;;;;;;;;;;;;;;;;;;5059165;28;20119;-40
2022/04/07 01:44:21;;;;;;;6.95;2.50;;;;;;;;;;5056510;28;19929;-38
2022/04/07 01:46:48;;;;;;;5.13;2.40;;;;;;;;;;5056159;28;20084;-38
2022/04/07 01:49:14;;;;;;;4.97;2.50;;;;;;;;;;5056251;28;20064;-38
2022/04/07 01:51:41;;;;;;;6.63;2.47;;;;;;;;;;5056231;28;20334;-38
2022/04/07 01:54:11;;;;;;;6.30;2.58;;;;;;;;;;5056377;28;20080;-38
2022/04/07 01:56:38;;;;;;;4.45;2.45;;;;;;;;;;5055672;28;20115;-38
2022/04/07 01:59:04;;;;;;;5.45;2.45;;;;;;;;;;5056043;28;20110;-38
2022/04/07 02:01:32;;;;;;;5.10;2.28;;;;;;;;;;5055979;28;20060;-38
2022/04/07 02:03:58;;;;;;;4.90;2.45;;;;;;;;;;5055630;28;20056;-38
2022/04/07 02:06:26;;;;;;;4.28;2.22;;;;;;;;;;5055595;28;20573;-38
2022/04/07 02:08:52;;;;;;;4.10;2.10;;;;;;;;;;5055710;28;20060;-39
2022/04/07 02:11:22;;;;;;;7.15;2.45;;;;;;;;;;5055309;28;20073;-38
2022/04/07 02:13:48;;;;;;;6.10;2.28;;;;;;;;;;5055763;28;20147;-38
2022/04/07 02:16:15;;;;;;;6.18;2.40;;;;;;;;;;5055340;28;20049;-38
2022/04/07 02:18:43;;;;;;;4.63;2.13;;;;;;;;;;5055404;28;20056;-39
2022/04/07 02:21:09;;;;;;;6.40;2.33;;;;;;;;;;5055598;28;20123;-41
2022/04/07 02:23:42;;;;;;;4.38;2.20;;;;;;;;;;5055493;28;20461;-39
2022/04/07 02:26:09;;;;;;;5.55;2.28;;;;;;;;;;5055312;28;20462;-39
2022/04/07 02:28:35;;;;;;;6.15;2.30;;;;;;;;;;5055276;28;20052;-38
2022/04/07 02:31:02;;;;;;;4.10;2.22;;;;;;;;;;5054963;28;20052;-39
2022/04/07 02:33:28;;;;;;;3.22;2.08;;;;;;;;;;5055680;28;20122;-38
2022/04/07 02:35:55;;;;;;;5.13;2.22;;;;;;;;;;5055349;28;20060;-39
2022/04/07 02:38:22;;;;;;;4.03;2.20;;;;;;;;;;5054874;28;20048;-38
2022/04/07 02:40:49;;;;;;;4.75;2.13;;;;;;;;;;5055182;28;20428;-39
2022/04/07 02:43:16;;;;;;;4.10;2.20;;;;;;;;;;5055232;28;20051;-39
2022/04/07 02:45:42;;;;;;;6.30;2.10;;;;;;;;;;5055410;28;20061;-39
2022/04/07 02:48:08;;;;;;;4.03;2.03;;;;;;;;;;5055347;28;20102;-39
2022/04/07 02:50:34;;;;;;;4.82;2.38;;;;;;;;;;5054993;28;20052;-38
2022/04/07 02:53:02;;;;;;;6.20;2.35;;;;;;;;;;5054675;28;20062;-39
2022/04/07 02:55:28;;;;;;;4.30;2.17;;;;;;;;;;5054807;28;20057;-39
2022/04/07 02:57:58;;;;;;;3.60;2.10;;;;;;;;;;5054934;28;20103;-38
2022/04/07 03:00:24;;;;;;;5.13;2.22;;;;;;;;;;5054556;28;20519;-38
2022/04/07 03:02:50;;;;;;;4.93;2.40;;;;;;;;;;5054733;28;20427;-38
2022/04/07 03:05:16;;;;;;;4.47;2.20;;;;;;;;;;5054940;28;20056;-39
2022/04/07 03:07:43;;;;;;;5.22;2.33;;;;;;;;;;5054517;28;20048;-39
2022/04/07 03:10:11;;;;;;;5.75;2.10;;;;;;;;;;5055031;28;20111;-38
2022/04/07 03:12:38;;;;;;;4.25;2.03;;;;;;;;;;5054622;28;20052;-44
2022/04/07 03:15:04;;;;;;;5.32;2.22;;;;;;;;;;5054698;28;20472;-39
2022/04/07 03:17:31;;;;;;;4.80;2.38;;;;;;;;;;5054370;28;20056;-38
2022/04/07 03:19:57;;;;;;;4.95;2.20;;;;;;;;;;5054270;28;20073;-39
2022/04/07 03:22:25;;;;;;;4.88;2.00;;;;;;;;;;5054071;28;20118;-39
2022/04/07 03:24:52;;;;;;;5.60;2.05;;;;;;;;;;5054711;28;20131;-38
2022/04/07 03:27:19;;;;;;;3.47;1.95;;;;;;;;;;5054409;28;20118;-38
2022/04/07 03:29:46;;;;;;;6.43;2.20;;;;;;;;;;5053993;28;20461;-38
2022/04/07 03:32:12;;;;;;;4.90;2.20;;;;;;;;;;5053812;28;20053;-40
2022/04/07 03:34:38;;;;;;;5.40;2.33;;;;;;;;;;5054329;28;20045;-38
2022/04/07 03:37:05;;;;;;;4.78;2.00;;;;;;;;;;5053804;28;20049;-39
2022/04/07 03:39:31;;;;;;;4.13;2.00;;;;;;;;;;5053861;28;20437;-39
2022/04/07 03:41:57;;;;;;;5.07;2.13;;;;;;;;;;5057302;28;20049;-40
2022/04/07 03:44:25;;;;;;;4.63;2.20;;;;;;;;;;5057065;28;20082;-48
2022/04/07 03:46:51;;;;;;;4.70;2.00;;;;;;;;;;5055202;28;20115;-39
2022/04/07 03:49:18;;;;;;;4.45;2.15;;;;;;;;;;5053044;28;20057;-40
2022/04/07 03:51:44;;;;;;;4.55;2.08;;;;;;;;;;5053252;28;20060;-39
2022/04/07 03:54:10;;;;;;;3.75;2.08;;;;;;;;;;5053645;28;20064;-39
2022/04/07 03:56:37;;;;;;;5.95;2.33;;;;;;;;;;5053629;28;20079;-39
2022/04/07 03:59:03;;;;;;;3.72;2.00;;;;;;;;;;5053444;28;20052;-40
2022/04/07 04:01:31;;;;;;;5.53;1.95;;;;;;;;;;5053337;28;20057;-39
2022/04/07 04:03:57;;;;;;;4.80;1.80;;;;;;;;;;5053318;28;20125;-39
2022/04/07 04:06:23;;;;;;;4.32;2.22;;;;;;;;;;5053948;28;20057;-38
2022/04/07 04:08:49;;;;;;;5.38;2.20;;;;;;;;;;5053260;28;20045;-39
2022/04/07 04:11:16;;;;;;;4.55;2.05;;;;;;;;;;5053567;28;20045;-38
2022/04/07 04:13:42;;;;;;;4.10;2.00;;;;;;;;;;5053547;28;20106;-39
2022/04/07 04:16:09;;;;;;;4.30;2.10;;;;;;;;;;5052943;28;20045;-39
2022/04/07 04:18:36;;;;;;;3.55;1.90;;;;;;;;;;5053104;28;20132;-38
2022/04/07 04:21:02;;;;;;;4.15;2.15;;;;;;;;;;5053184;28;20045;-38
2022/04/07 04:23:29;;;;;;;5.22;2.13;;;;;;;;;;5053073;28;20468;-39
2022/04/07 04:25:55;;;;;;;3.20;2.00;;;;;;;;;;5052703;28;20532;-40
2022/04/07 04:28:21;;;;;;;3.85;1.90;;;;;;;;;;5053279;28;20397;-39
2022/04/07 04:30:47;;;;;;;3.83;1.90;;;;;;;;;;5052675;28;20049;-37
2022/04/07 04:33:14;;;;;;;3.42;2.00;;;;;;;;;;5053288;28;20129;-37
2022/04/07 04:35:41;;;;;;;4.38;2.00;;;;;;;;;;5053478;28;20056;-38
2022/04/07 04:38:08;;;;;;;3.58;2.08;;;;;;;;;;5053013;28;20045;-40
2022/04/07 04:40:34;;;;;;;3.35;1.98;;;;;;;;;;5052869;28;20049;-40
2022/04/07 04:43:00;;;;;;;3.38;2.00;;;;;;;;;;5053093;28;20049;-39
2022/04/07 04:45:27;;;;;;;4.78;1.90;;;;;;;;;;5052936;28;20501;-38
2022/04/07 04:47:53;;;;;;;3.38;2.00;;;;;;;;;;5053530;28;20053;-38
2022/04/07 04:50:20;;;;;;;2.75;1.73;;;;;;;;;;5053063;28;20481;-38
2022/04/07 04:52:47;;;;;;;2.80;1.83;;;;;;;;;;5053310;28;20053;-39
2022/04/07 04:55:14;;;;;;;4.97;2.10;;;;;;;;;;5052645;28;20049;-39
2022/04/07 04:57:40;;;;;;;5.55;2.00;;;;;;;;;;5052868;28;20079;-39
2022/04/07 05:00:07;;;;;;;3.40;1.88;;;;;;;;;;5052842;28;20041;-39
2022/04/07 05:02:33;;;;;;;3.28;1.90;;;;;;;;;;5056816;28;20491;-39
2022/04/07 05:05:00;;;;;;;3.42;1.90;;;;;;;;;;5056595;28;20478;-39
2022/04/07 05:07:26;;;;;;;3.80;1.90;;;;;;;;;;5056971;28;20428;-39
2022/04/07 05:09:56;;;;;;;4.72;1.85;;;;;;;;;;5057019;28;20053;-38
2022/04/07 05:12:22;;;;;;;4.63;2.03;;;;;;;;;;5056963;28;20111;-38
2022/04/07 05:14:49;;;;;;;5.60;1.90;;;;;;;;;;5056438;28;20049;-39
2022/04/07 05:17:15;;;;;;;3.72;2.00;;;;;;;;;;5056856;28;20048;-38
2022/04/07 05:19:44;;;;;;;4.55;1.92;;;;;;;;;;5056780;28;20111;-39
2022/04/07 05:22:11;;;;;;;3.85;2.00;;;;;;;;;;5056754;28;20048;-39
2022/04/07 05:24:37;;;;;;;3.25;1.80;;;;;;;;;;5056488;28;20404;-39
2022/04/07 05:27:05;;;;;;;4.07;2.03;;;;;;;;;;5056228;28;20044;-37
2022/04/07 05:29:31;;;;;;;5.40;1.95;;;;;;;;;;5056173;28;20385;-39
2022/04/07 05:31:57;;;;;;;3.72;1.95;;;;;;;;;;5056363;28;20044;-38
2022/04/07 05:34:24;;;;;;;3.70;1.80;;;;;;;;;;5055966;28;20481;-38
2022/04/07 05:36:50;;;;;;;3.30;1.90;;;;;;;;;;5056642;28;20057;-39
2022/04/07 05:39:16;;;;;;;3.35;1.80;;;;;;;;;;5056212;28;20110;-39
2022/04/07 05:41:42;;;;;;;4.00;2.03;;;;;;;;;;5056194;28;20057;-39
2022/04/07 05:44:10;;;;;;;3.15;1.80;;;;;;;;;;5056209;28;20044;-39
2022/04/07 05:46:36;;;;;;;3.92;1.80;;;;;;;;;;5055896;28;20458;-38
2022/04/07 05:49:02;;;;;;;3.95;1.90;;;;;;;;;;5056572;28;20060;-39
2022/04/07 05:51:29;;;;;;;3.53;1.90;;;;;;;;;;5055829;28;20056;-39
2022/04/07 05:53:55;;;;;;;4.43;2.05;;;;;;;;;;5056153;28;20053;-39
2022/04/07 05:56:21;;;;;;;3.45;1.83;;;;;;;;;;5056080;28;20045;-39
2022/04/07 05:58:48;;;;;;;2.80;1.60;;;;;;;;;;5056261;28;20053;-39
2022/04/07 06:01:17;;;;;;;3.78;1.90;;;;;;;;;;5055384;28;20072;-38
2022/04/07 06:03:44;;;;;;;4.13;1.80;;;;;;;;;;5057539;28;20060;-39
2022/04/07 06:06:10;;;;;;;3.95;1.73;;;;;;;;;;5059027;28;20048;-50
2022/04/07 06:08:36;;;;;;;3.63;1.80;;;;;;;;;;5057564;28;20111;-54
2022/04/07 06:11:02;;;;;;;3.38;1.90;;;;;;;;;;5058302;28;20493;-56
2022/04/07 06:13:29;;;;;;;3.17;1.88;;;;;;;;;;5056673;28;20123;-38
2022/04/07 06:15:55;;;;;;;3.05;1.90;;;;;;;;;;5056529;28;20057;-38
2022/04/07 06:18:23;;;;;;;3.00;1.80;;;;;;;;;;5055776;28;20904;-39
2022/04/07 06:20:49;;;;;;;5.75;1.80;;;;;;;;;;5055446;28;20041;-38
2022/04/07 06:23:16;;;;;;;3.67;1.95;;;;;;;;;;5055638;28;20114;-39
2022/04/07 06:25:42;;;;;;;3.30;1.80;;;;;;;;;;5054769;28;20128;-39
2022/04/07 06:28:08;;;;;;;6.32;1.80;;;;;;;;;;5054983;28;20481;-39
2022/04/07 06:30:35;;;;;;;3.78;1.67;;;;;;;;;;5055462;28;20440;-41
2022/04/07 06:33:01;;;;;;;3.70;1.60;;;;;;;;;;5055461;28;20053;-39
2022/04/07 06:35:29;;;;;;;4.18;1.75;;;;;;;;;;5055387;28;20053;-39
2022/04/07 06:37:56;;;;;;;7.10;1.83;;;;;;;;;;5055304;28;20435;-39
2022/04/07 06:40:23;;;;;;;4.32;1.80;;;;;;;;;;5055238;28;20118;-44
2022/04/07 06:42:49;;;;;;;4.03;1.73;;;;;;;;;;5054404;28;20472;-38
2022/04/07 06:45:15;;;;;;;3.40;1.70;;;;;;;;;;5055238;28;20048;-38
2022/04/07 06:47:42;;;;;;;3.55;1.88;;;;;;;;;;5055210;28;20048;-38
2022/04/07 06:50:10;;;;;;;3.67;1.70;;;;;;;;;;5055356;28;20135;-39
2022/04/07 06:52:38;;;;;;;2.35;1.75;;;;;;;;;;5055014;28;20144;-38
2022/04/07 06:55:04;;;;;;;;;;;;;;;;;;5055585;28;20107;-39
2022/04/07 06:57:31;;;;;;;4.90;1.80;;;;;;;;;;5054889;28;20007;-38
2022/04/07 06:59:57;;;;;;;5.57;1.70;;;;;;;;;;5054784;28;20106;-40
2022/04/07 07:02:23;;;;;;;5.20;1.80;;;;;;;;;;5054850;28;20076;-39
2022/04/07 07:04:49;;;;;;;3.65;1.42;;;;;;;;;;5054843;28;20396;-38
2022/04/07 07:07:17;;;;;;;2.28;1.50;;;;;;;;;;5054449;28;20476;-39
2022/04/07 07:09:44;;;;;;;4.88;1.95;;;;;;;;;;5054621;28;20057;-39
2022/04/07 07:12:11;;;;;;;4.22;1.83;;;;;;;;;;5054510;28;20084;-44
2022/04/07 07:14:37;;;;;;;9.40;2.50;;;;;;;;;;5054403;28;20045;-39
2022/04/07 07:17:03;;;;;;;4.22;1.90;;;;;;;;;;5054282;28;20068;-38
2022/04/07 07:19:30;;;;;;;5.55;1.90;;;;;;;;;;5054477;28;20065;-39
2022/04/07 07:21:56;;;;;;;20.48;5.85;;;;;;;;;;5054823;28;20056;-39
2022/04/07 07:24:23;;;;;;;12.95;3.30;;;;;;;;;;5053980;28;20483;-39
2022/04/07 07:26:50;;;;;;;10.75;3.53;;;;;;;;;;5054339;28;20464;-38
2022/04/07 07:29:17;;;;;;;9.75;3.10;;;;;;;;;;5054208;28;20060;-40
2022/04/07 07:31:43;;;;;;;10.02;3.10;;;;;;;;;;5054964;28;20049;-39
2022/04/07 07:34:10;;;;;;;8.77;3.10;;;;;;;;;;5054402;28;20535;-39
2022/04/07 07:36:36;;;;;;;11.43;2.90;;;;;;;;;;5054558;28;20060;-39
2022/04/07 07:39:02;;;;;;;12.82;3.03;;;;;;;;;;5054900;28;20048;-42
2022/04/07 07:41:29;;;;;;;8.70;2.83;;;;;;;;;;5053936;28;20424;-40
2022/04/07 07:43:56;;;;;;;8.35;3.25;;;;;;;;;;5054175;28;20060;-42
2022/04/07 07:46:22;;;;;;;10.25;3.10;;;;;;;;;;5053928;28;20045;-41
2022/04/07 07:48:49;;;;;;;9.88;3.17;;;;;;;;;;5054337;28;20056;-39
2022/04/07 07:51:16;;;;;;;8.40;3.03;;;;;;;;;;5054211;28;20075;-39
2022/04/07 07:53:45;;;;;;;8.38;2.85;;;;;;;;;;5053917;28;20499;-39
2022/04/07 07:56:11;;;;;;;9.80;2.85;;;;;;;;;;5054279;28;20055;-40
2022/04/07 07:58:37;;;;;;;8.05;2.80;;;;;;;;;;5053885;28;20053;-39
2022/04/07 08:01:05;;;;;;;10.60;2.60;;;;;;;;;;5052823;28;20412;-39
2022/04/07 08:03:31;;;;;;;7.38;2.60;;;;;;;;;;5053840;28;20064;-39
2022/04/07 08:05:59;;;;;;;7.60;2.50;;;;;;;;;;5053772;28;20067;-39
2022/04/07 08:08:25;;;;;;;5.55;2.30;;;;;;;;;;5053566;28;20420;-39
2022/04/07 08:10:52;;;;;;;8.10;2.70;;;;;;;;;;5053695;28;20059;-43
2022/04/07 08:13:18;;;;;;;6.38;2.25;;;;;;;;;;5054799;28;20447;-45
2022/04/07 08:15:44;;;;;;;7.68;2.40;;;;;;;;;;5054808;28;20381;-40
2022/04/07 08:18:12;;;;;;;7.50;2.50;;;;;;;;;;5055058;28;20428;-41
2022/04/07 08:20:38;;;;;;;6.43;2.20;;;;;;;;;;5055057;28;20075;-42
2022/04/07 08:23:04;;;;;;;9.93;2.58;;;;;;;;;;5054276;28;20057;-46
2022/04/07 08:25:32;;;;;;;7.43;2.63;;;;;;;;;;5053204;28;20539;-41
2022/04/07 08:27:58;;;;;;;6.72;2.30;;;;;;;;;;5053555;28;20045;-53
2022/04/07 08:30:24;;;;;;;7.18;2.53;;;;;;;;;;5053905;28;20468;-50
2022/04/07 08:32:50;;;;;;;8.63;2.22;;;;;;;;;;5053225;28;20056;-52
2022/04/07 08:35:18;;;;;;;5.25;2.10;;;;;;;;;;5053083;28;20044;-46
2022/04/07 08:37:44;;;;;;;9.27;2.35;;;;;;;;;;5053768;28;20052;-39
2022/04/07 08:40:11;;;;;;;6.63;2.22;;;;;;;;;;5052889;28;20060;-38
2022/04/07 08:42:37;;;;;;;6.25;2.05;;;;;;;;;;5053628;28;20053;-39
2022/04/07 08:45:04;;;;;;;7.65;2.40;;;;;;;;;;5052928;28;20056;-39
2022/04/07 08:47:31;;;;;;;6.53;2.38;;;;;;;;;;5053176;28;20130;-38
2022/04/07 08:49:57;;;;;;;7.47;2.13;;;;;;;;;;5052893;28;20100;-38
2022/04/07 08:52:25;;;;;;;7.32;2.22;;;;;;;;;;5052891;28;20110;-44
2022/04/07 08:54:51;;;;;;;5.40;2.30;;;;;;;;;;5055428;28;20052;-52
2022/04/07 08:57:17;;;;;;;6.25;2.00;;;;;;;;;;5055188;28;20392;-45
2022/04/07 08:59:44;;;;;;;6.35;2.00;;;;;;;;;;5056560;28;20362;-57
2022/04/07 09:02:10;;;;;;;8.65;2.42;;;;;;;;;;5056169;28;20045;-41
2022/04/07 09:04:37;;;;;;;5.40;2.00;;;;;;;;;;5056191;28;20099;-41
2022/04/07 09:07:04;;;;;;;8.20;2.67;;;;;;;;;;5054982;28;20052;-40
2022/04/07 09:09:32;;;;;;;6.78;2.65;;;;;;;;;;5054520;28;20057;-40
2022/04/07 09:11:59;;;;;;;12.73;3.05;;;;;;;;;;5054077;28;20052;-48
2022/04/07 09:14:25;;;;;;;14.38;5.00;;;;;;;;;;5054519;28;20500;-45
2022/04/07 09:16:53;;;;;;;9.32;2.90;;;;;;;;;;5054663;28;20052;-39
2022/04/07 09:19:21;;;;;;;7.95;2.60;;;;;;;;;;5053073;28;20058;-39
2022/04/07 09:21:47;;;;;;;7.35;2.70;;;;;;;;;;5053072;28;20103;-41
2022/04/07 09:24:15;;;;;;;7.30;2.83;;;;;;;;;;5052815;28;20057;-39
2022/04/07 09:26:43;;;;;;;8.55;3.08;;;;;;;;;;5052483;28;20152;-39
2022/04/07 09:29:09;;;;;;;;;;;;;;;;;;5053346;28;20053;-44
2022/04/07 09:31:37;;;;;;;8.32;2.90;;;;;;;;;;5053325;28;20031;-39
2022/04/07 09:34:03;;;;;;;8.25;2.90;;;;;;;;;;5052582;28;20957;-39
2022/04/07 09:36:30;;;;;;;8.98;2.67;;;;;;;;;;5052738;28;20061;-39
2022/04/07 09:38:58;;;;;;;10.27;3.08;;;;;;;;;;5052777;28;20057;-39
2022/04/07 09:41:27;;;;;;;8.80;2.90;;;;;;;;;;5052926;28;20048;-39
2022/04/07 09:43:58;;;;;;;8.07;2.85;;;;;;;;;;5052792;28;20060;-39
2022/04/07 09:46:24;;;;;;;9.23;3.08;;;;;;;;;;5052806;28;20053;-39
2022/04/07 09:48:58;;;;;;;9.45;3.15;;;;;;;;;;5055274;28;20052;-39
2022/04/07 09:51:25;;;;;;;10.40;3.30;;;;;;;;;;5056178;28;20122;-39
2022/04/07 09:53:55;;;;;;;7.70;3.30;;;;;;;;;;5055919;28;20465;-38
2022/04/07 09:56:22;;;;;;;8.50;3.40;;;;;;;;;;5056359;28;20049;-38
2022/04/07 09:58:48;;;;;;;10.90;3.42;;;;;;;;;;5056356;28;20053;-39
2022/04/07 10:01:16;;;;;;;9.85;2.95;;;;;;;;;;5055844;28;20045;-36
2022/04/07 10:03:43;;;;;;;8.70;3.30;;;;;;;;;;5056182;28;20053;-36
2022/04/07 10:06:10;;;;;;;7.00;2.80;;;;;;;;;;5055953;28;20064;-38
2022/04/07 10:08:38;;;;;;;8.15;3.03;;;;;;;;;;5055644;28;20056;-38
2022/04/07 10:11:05;;;;;;;7.40;2.90;;;;;;;;;;5055652;28;20870;-39
2022/04/07 10:13:31;;;;;;;8.40;2.72;;;;;;;;;;5055878;28;20102;-39
2022/04/07 10:15:58;;;;;;;8.68;2.92;;;;;;;;;;5055739;28;20538;-38
2022/04/07 10:18:28;;;;;;;8.50;2.90;;;;;;;;;;5056139;28;20056;-38
2022/04/07 10:20:57;;;;;;;7.65;2.92;;;;;;;;;;5055405;28;20115;-39
2022/04/07 10:23:38;;;;;;;8.18;2.67;;;;;;;;;;5055708;28;20078;-39
2022/04/07 10:26:07;;;;;;;9.60;3.10;;;;;;;;;;5055848;28;20053;-39
2022/04/07 10:28:33;;;;;;;9.35;3.10;;;;;;;;;;5055280;28;20480;-39
2022/04/07 10:31:00;;;;;;;7.25;3.00;;;;;;;;;;5055437;28;20053;-39
2022/04/07 10:33:34;;;;;;;7.40;2.60;;;;;;;;;;5055825;28;20457;-39
2022/04/07 10:36:00;;;;;;;7.85;2.90;;;;;;;;;;5055617;28;20057;-39
2022/04/07 10:38:36;;;;;;;11.43;3.03;;;;;;;;;;5054490;28;20057;-39
